createdAt,value
2023-02-12T00:02:18.044Z,18.92
2023-02-12T00:04:44.779Z,17.05
2023-02-12T00:07:11.427Z,20.23
2023-02-12T00:09:38.080Z,20.40
2023-02-12T00:12:04.760Z,21.63
2023-02-12T00:14:31.413Z,20.02
2023-02-12T00:16:58.057Z,21.30
2023-02-12T00:19:24.641Z,20.55
2023-02-12T00:21:51.247Z,20.08
2023-02-12T00:24:17.840Z,19.92
2023-02-12T00:26:44.427Z,20.77
2023-02-12T00:29:11.028Z,18.52
2023-02-12T00:31:37.825Z,20.50
2023-02-12T00:34:04.516Z,19.77
2023-02-12T00:36:31.425Z,21.40
2023-02-12T00:38:58.355Z,21.33
2023-02-12T00:41:25.061Z,21.30
2023-02-12T00:43:51.721Z,20.75
2023-02-12T00:46:18.437Z,20.42
2023-02-12T00:48:45.192Z,20.30
2023-02-12T00:51:12.352Z,19.02
2023-02-12T00:53:39.178Z,20.92
2023-02-12T00:56:06.050Z,21.67
2023-02-12T00:58:32.743Z,21.45
2023-02-12T01:00:59.438Z,20.23
2023-02-12T01:03:26.038Z,21.98
2023-02-12T01:05:53.639Z,19.85
2023-02-12T01:08:20.537Z,20.70
2023-02-12T01:10:55.605Z,21.13
2023-02-12T01:13:22.224Z,21.35
2023-02-12T01:15:48.931Z,19.83
2023-02-12T01:18:16.224Z,21.25
2023-02-12T01:20:42.833Z,20.75
2023-02-12T01:23:09.473Z,22.38
2023-02-12T01:25:37.594Z,21.52
2023-02-12T01:28:04.403Z,23.45
2023-02-12T01:30:30.981Z,21.45
2023-02-12T01:32:57.560Z,20.60
2023-02-12T01:35:24.129Z,18.77
2023-02-12T01:37:50.769Z,19.90
2023-02-12T01:40:17.403Z,21.55
2023-02-12T01:42:43.957Z,21.55
2023-02-12T01:47:50.752Z,20.55
2023-02-12T01:50:18.623Z,20.92
2023-02-12T01:52:47.631Z,20.13
2023-02-12T01:55:14.243Z,22.90
2023-02-12T01:57:42.701Z,23.27
2023-02-12T02:00:12.742Z,21.45
2023-02-12T02:02:39.396Z,22.13
2023-02-12T02:05:06.605Z,22.60
2023-02-12T02:07:33.191Z,20.52
2023-02-12T02:09:59.826Z,21.40
2023-02-12T02:12:46.486Z,23.30
2023-02-12T02:15:13.072Z,23.40
2023-02-12T02:20:48.762Z,24.75
2023-02-12T02:23:44.281Z,21.90
2023-02-12T02:31:58.309Z,22.67
2023-02-12T02:34:47.992Z,23.25
2023-02-12T02:37:26.448Z,21.98
2023-02-12T02:39:58.567Z,24.02
2023-02-12T02:42:33.110Z,20.10
2023-02-12T02:45:22.621Z,18.88
2023-02-12T02:47:53.253Z,19.75
2023-02-12T02:50:21.235Z,19.60
2023-02-12T02:52:53.916Z,19.27
2023-02-12T02:55:21.225Z,20.17
2023-02-12T02:57:52.219Z,20.58
2023-02-12T03:00:24.366Z,18.17
2023-02-12T03:02:55.188Z,18.70
2023-02-12T03:05:25.538Z,19.65
2023-02-12T03:07:56.167Z,20.25
2023-02-12T03:10:25.582Z,19.20
2023-02-12T03:12:55.941Z,17.40
2023-02-12T03:15:44.504Z,19.15
2023-02-12T03:18:16.051Z,17.70
2023-02-12T03:20:45.778Z,17.35
2023-02-12T03:23:15.230Z,19.45
2023-02-12T03:25:49.843Z,21.65
2023-02-12T03:28:29.226Z,20.77
2023-02-12T03:31:03.123Z,19.45
2023-02-12T03:33:50.920Z,20.08
2023-02-12T03:36:26.461Z,18.30
2023-02-12T03:38:54.289Z,18.25
2023-02-12T03:41:25.015Z,18.88
2023-02-12T03:43:54.706Z,17.85
2023-02-12T03:46:35.628Z,19.75
2023-02-12T03:49:10.359Z,19.05
2023-02-12T03:51:39.706Z,19.85
2023-02-12T03:54:07.532Z,18.10
2023-02-12T03:56:45.603Z,18.67
2023-02-12T03:59:12.240Z,20.13
2023-02-12T04:01:38.967Z,18.88
2023-02-12T04:04:07.009Z,19.38
2023-02-12T04:06:33.821Z,18.98
2023-02-12T04:09:15.498Z,19.98
2023-02-12T04:12:19.818Z,19.77
2023-02-12T04:15:01.783Z,19.35
2023-02-12T04:18:08.435Z,20.15
2023-02-12T04:20:46.901Z,21.98
2023-02-12T04:23:22.718Z,18.75
2023-02-12T04:29:14.491Z,21.02
2023-02-12T04:31:50.848Z,20.65
2023-02-12T04:34:31.126Z,20.38
2023-02-12T04:37:02.506Z,20.75
2023-02-12T04:39:30.445Z,20.25
2023-02-12T04:42:04.344Z,21.88
2023-02-12T04:44:33.741Z,19.70
2023-02-12T04:47:00.619Z,19.25
2023-02-12T04:49:27.390Z,22.25
2023-02-12T04:51:54.068Z,21.17
2023-02-12T04:54:21.232Z,21.40
2023-02-12T04:56:48.371Z,21.13
2023-02-12T04:59:15.351Z,23.02
2023-02-12T05:01:42.469Z,22.58
2023-02-12T05:04:09.976Z,22.15
2023-02-12T05:06:37.095Z,22.35
2023-02-12T05:09:04.259Z,23.20
2023-02-12T05:11:30.910Z,21.73
2023-02-12T05:13:57.502Z,21.40
2023-02-12T05:16:24.222Z,22.40
2023-02-12T05:18:50.871Z,23.27
2023-02-12T05:21:17.590Z,27.20
2023-02-12T05:23:44.313Z,21.38
2023-02-12T05:26:16.192Z,24.50
2023-02-12T05:28:42.837Z,22.33
2023-02-12T05:31:11.316Z,23.30
2023-02-12T05:33:38.012Z,21.90
2023-02-12T05:36:07.836Z,25.90
2023-02-12T05:38:34.550Z,22.73
2023-02-12T05:41:03.140Z,24.17
2023-02-12T05:43:29.767Z,21.63
2023-02-12T05:45:59.532Z,22.38
2023-02-12T05:48:26.670Z,23.00
2023-02-12T05:50:53.369Z,23.73
2023-02-12T05:53:20.252Z,24.10
2023-02-12T05:55:47.983Z,26.70
2023-02-12T05:58:16.145Z,23.20
2023-02-12T06:00:42.819Z,25.58
2023-02-12T06:03:09.460Z,31.77
2023-02-12T06:05:36.052Z,43.90
2023-02-12T06:08:02.677Z,43.58
2023-02-12T06:10:29.263Z,43.50
2023-02-12T06:12:55.903Z,37.58
2023-02-12T06:15:22.525Z,39.97
2023-02-12T06:17:49.122Z,34.65
2023-02-12T06:20:15.959Z,33.90
2023-02-12T06:22:42.567Z,35.40
2023-02-12T06:25:09.154Z,33.05
2023-02-12T06:27:35.760Z,36.13
2023-02-12T06:30:02.375Z,33.85
2023-02-12T06:32:28.996Z,35.35
2023-02-12T06:34:55.635Z,31.77
2023-02-12T06:37:22.213Z,32.00
2023-02-12T06:39:48.852Z,29.45
2023-02-12T06:42:15.479Z,28.42
2023-02-12T06:44:42.076Z,29.80
2023-02-12T06:47:08.737Z,30.73
2023-02-12T06:49:35.340Z,30.67
2023-02-12T06:52:03.402Z,30.17
2023-02-12T06:54:30.234Z,29.92
2023-02-12T06:56:56.808Z,33.83
2023-02-12T06:59:23.398Z,31.35
2023-02-12T07:01:50.080Z,32.72
2023-02-12T07:04:16.817Z,33.78
2023-02-12T07:06:43.438Z,32.78
2023-02-12T07:09:10.028Z,30.92
2023-02-12T07:11:38.323Z,32.08
2023-02-12T07:14:05.790Z,31.90
2023-02-12T07:16:32.490Z,35.85
2023-02-12T07:18:59.141Z,31.13
2023-02-12T07:21:25.693Z,33.38
2023-02-12T07:23:52.772Z,31.15
2023-02-12T07:26:20.254Z,31.17
2023-02-12T07:28:46.884Z,29.40
2023-02-12T07:31:15.235Z,27.48
2023-02-12T07:33:42.333Z,31.02
2023-02-12T07:36:11.229Z,28.88
2023-02-12T07:38:39.700Z,29.63
2023-02-12T07:41:12.378Z,29.48
2023-02-12T07:46:11.221Z,28.65
2023-02-12T07:48:38.089Z,30.20
2023-02-12T07:51:06.436Z,29.42
2023-02-12T07:53:33.209Z,28.02
2023-02-12T07:56:19.902Z,28.67
2023-02-12T07:58:47.606Z,25.92
2023-02-12T08:01:16.472Z,28.45
2023-02-12T08:03:43.262Z,28.08
2023-02-12T08:06:12.310Z,26.20
2023-02-12T08:08:38.955Z,26.55
2023-02-12T08:11:07.514Z,24.83
2023-02-12T08:13:35.168Z,25.77
2023-02-12T08:16:02.982Z,22.83
2023-02-12T08:18:31.416Z,24.52
2023-02-12T08:21:06.269Z,22.02
2023-02-12T08:23:34.165Z,23.73
2023-02-12T08:26:19.094Z,20.85
2023-02-12T08:28:47.363Z,25.58
2023-02-12T08:31:16.274Z,23.10
2023-02-12T08:33:44.693Z,23.00
2023-02-12T08:36:12.917Z,22.75
2023-02-12T08:38:39.691Z,22.17
2023-02-12T08:41:08.006Z,23.13
2023-02-12T08:43:35.215Z,22.02
2023-02-12T08:46:03.661Z,22.45
2023-02-12T08:48:30.432Z,25.45
2023-02-12T08:50:57.051Z,22.98
2023-02-12T08:53:23.874Z,22.80
2023-02-12T08:55:50.593Z,21.40
2023-02-12T08:58:17.204Z,22.35
2023-02-12T09:00:43.794Z,25.50
2023-02-12T09:03:10.448Z,23.20
2023-02-12T09:05:39.807Z,23.48
2023-02-12T09:08:06.595Z,24.17
2023-02-12T09:10:33.203Z,25.00
2023-02-12T09:12:59.828Z,25.85
2023-02-12T09:15:26.454Z,25.17
2023-02-12T09:17:53.061Z,23.90
2023-02-12T09:20:19.818Z,23.40
2023-02-12T09:22:46.397Z,23.50
2023-02-12T09:25:13.003Z,30.90
2023-02-12T09:27:39.622Z,28.52
2023-02-12T09:30:06.799Z,25.25
2023-02-12T09:32:33.483Z,22.55
2023-02-12T09:35:00.115Z,21.92
2023-02-12T09:37:26.788Z,19.50
2023-02-12T09:39:53.418Z,19.92
2023-02-12T09:42:33.608Z,18.45
2023-02-12T09:45:20.559Z,18.35
2023-02-12T09:47:53.008Z,15.18
2023-02-12T09:53:23.996Z,11.13
2023-02-12T09:55:50.752Z,12.32
2023-02-12T09:58:24.373Z,13.13
2023-02-12T10:00:50.980Z,5.82
2023-02-12T10:03:17.656Z,2.55
2023-02-12T10:05:49.429Z,5.03
2023-02-12T10:08:48.609Z,4.53
2023-02-12T10:11:39.427Z,4.28
2023-02-12T10:14:45.914Z,4.47
2023-02-12T10:17:29.411Z,6.20
2023-02-12T10:20:35.882Z,9.65
2023-02-12T10:23:25.261Z,5.35
2023-02-12T10:25:54.687Z,4.25
2023-02-12T10:28:26.887Z,4.55
2023-02-12T10:30:56.840Z,4.15
2023-02-12T10:33:36.478Z,3.90
2023-02-12T10:36:12.079Z,2.97
2023-02-12T10:38:39.971Z,4.13
2023-02-12T10:41:06.637Z,2.60
2023-02-12T10:43:33.326Z,3.28
2023-02-12T10:45:59.906Z,3.22
2023-02-12T10:48:37.010Z,4.90
2023-02-12T10:57:20.168Z,3.90
2023-02-12T10:59:47.604Z,4.78
2023-02-12T11:02:26.687Z,5.55
2023-02-12T11:04:54.415Z,5.80
2023-02-12T11:07:21.503Z,5.55
2023-02-12T11:09:49.563Z,6.28
2023-02-12T11:12:36.135Z,7.07
2023-02-12T11:15:08.081Z,7.28
2023-02-12T11:17:38.327Z,4.18
2023-02-12T11:20:23.069Z,5.63
2023-02-12T11:22:55.647Z,5.47
2023-02-12T11:25:22.864Z,6.00
2023-02-12T11:28:14.404Z,3.42
2023-02-12T11:30:50.966Z,4.20
2023-02-12T11:33:30.490Z,4.85
2023-02-12T11:35:59.340Z,6.22
2023-02-12T11:38:28.836Z,3.63
2023-02-12T11:40:58.423Z,2.80
2023-02-12T11:43:25.346Z,2.55
2023-02-12T11:45:52.677Z,2.42
2023-02-12T11:51:00.992Z,1.83
2023-02-12T11:53:33.361Z,2.20
2023-02-12T11:56:02.546Z,3.40
2023-02-12T11:58:29.539Z,3.30
2023-02-12T12:01:05.773Z,2.20
2023-02-12T12:04:12.235Z,1.70
2023-02-12T12:06:44.081Z,2.22
2023-02-12T12:09:15.896Z,2.47
2023-02-12T12:11:49.647Z,3.83
2023-02-12T12:14:57.167Z,2.22
2023-02-12T12:17:45.884Z,2.15
2023-02-12T12:20:15.913Z,2.22
2023-02-12T12:23:07.854Z,2.95
2023-02-12T12:25:45.209Z,3.58
2023-02-12T12:28:51.683Z,6.18
2023-02-12T12:31:37.123Z,5.00
2023-02-12T12:34:12.005Z,3.83
2023-02-12T12:36:46.706Z,4.32
2023-02-12T12:39:26.875Z,2.35
2023-02-12T12:42:33.366Z,2.60
2023-02-12T12:53:47.008Z,2.58
2023-02-12T12:56:42.458Z,3.10
2023-02-12T12:59:34.514Z,2.72
2023-02-12T13:02:41.176Z,4.18
2023-02-12T13:05:23.999Z,3.78
2023-02-12T13:10:52.430Z,5.65
2023-02-12T13:13:41.852Z,5.25
2023-02-12T13:16:16.142Z,4.35
2023-02-12T13:19:05.332Z,4.00
2023-02-12T13:21:46.770Z,8.02
2023-02-12T13:24:37.603Z,8.77
2023-02-12T13:27:07.606Z,7.65
2023-02-12T13:29:40.438Z,6.55
2023-02-12T13:32:16.765Z,6.43
2023-02-12T13:34:43.427Z,9.25
2023-02-12T13:37:35.320Z,5.70
2023-02-12T13:40:04.421Z,5.40
2023-02-12T13:45:40.121Z,4.65
2023-02-12T13:48:20.364Z,5.25
2023-02-12T13:51:09.826Z,6.28
2023-02-12T13:54:03.067Z,6.60
2023-02-12T13:56:41.492Z,5.75
2023-02-12T14:02:28.366Z,6.63
2023-02-12T14:04:56.579Z,6.05
2023-02-12T14:07:23.214Z,7.50
2023-02-12T14:09:55.016Z,6.53
2023-02-12T14:12:28.677Z,7.05
2023-02-12T14:15:08.056Z,6.20
2023-02-12T14:20:31.972Z,5.13
2023-02-12T14:23:26.727Z,7.60
2023-02-12T14:25:59.153Z,5.35
2023-02-12T14:28:42.123Z,5.35
2023-02-12T14:34:16.492Z,6.03
2023-02-12T14:36:45.018Z,6.43
2023-02-12T14:39:28.218Z,8.20
2023-02-12T14:42:16.912Z,8.27
2023-02-12T14:50:16.744Z,8.05
2023-02-12T14:52:44.845Z,8.40
2023-02-12T14:55:20.295Z,9.45
2023-02-12T14:57:47.037Z,10.30
2023-02-12T15:00:29.185Z,9.00
2023-02-12T15:03:02.677Z,8.60
2023-02-12T15:05:41.919Z,8.63
2023-02-12T15:08:48.451Z,8.05
2023-02-12T15:11:39.348Z,7.68
2023-02-12T15:14:16.969Z,7.55
2023-02-12T15:17:20.216Z,7.50
2023-02-12T15:22:25.843Z,7.43
2023-02-12T15:24:52.588Z,7.93
2023-02-12T15:27:19.585Z,6.10
2023-02-12T15:29:49.405Z,6.88
2023-02-12T15:32:25.046Z,8.02
2023-02-12T15:34:52.050Z,8.10
2023-02-12T15:37:29.336Z,8.88
2023-02-12T15:39:59.233Z,8.85
2023-02-12T15:42:32.630Z,9.55
2023-02-12T15:45:18.637Z,9.52
2023-02-12T15:47:45.940Z,9.73
2023-02-12T15:50:13.592Z,10.30
2023-02-12T15:52:41.198Z,10.40
2023-02-12T15:55:14.781Z,10.43
2023-02-12T15:57:41.548Z,9.73
2023-02-12T16:00:10.186Z,11.95
2023-02-12T16:02:36.886Z,10.55
2023-02-12T16:05:04.564Z,10.23
2023-02-12T16:07:34.648Z,10.45
2023-02-12T16:10:01.254Z,8.20
2023-02-12T16:12:30.391Z,11.18
2023-02-12T16:14:59.958Z,12.20
2023-02-12T16:17:29.103Z,12.23
2023-02-12T16:19:59.658Z,12.70
2023-02-12T16:22:29.286Z,12.15
2023-02-12T16:24:56.915Z,11.88
2023-02-12T16:27:26.453Z,12.57
2023-02-12T16:29:55.437Z,13.93
2023-02-12T16:32:39.078Z,12.80
2023-02-12T16:37:49.642Z,14.38
2023-02-12T16:42:57.769Z,16.45
2023-02-12T16:50:49.270Z,14.38
2023-02-12T16:56:21.958Z,17.58
2023-02-12T16:58:50.644Z,18.63
2023-02-12T17:01:19.785Z,16.58
2023-02-12T17:03:47.709Z,16.42
2023-02-12T17:06:15.963Z,17.60
2023-02-12T17:08:42.794Z,18.83
2023-02-12T17:11:10.927Z,16.23
2023-02-12T17:13:37.743Z,18.13
2023-02-12T17:16:05.004Z,16.85
2023-02-12T17:18:32.858Z,15.65
2023-02-12T17:21:03.605Z,15.85
2023-02-12T17:23:30.442Z,15.70
2023-02-12T17:25:57.562Z,15.60
2023-02-12T17:28:25.294Z,20.35
2023-02-12T17:30:52.962Z,17.33
2023-02-12T17:33:20.162Z,16.73
2023-02-12T17:35:46.859Z,16.77
2023-02-12T17:38:13.545Z,15.77
2023-02-12T17:40:40.160Z,23.88
2023-02-12T17:43:06.894Z,17.08
2023-02-12T17:45:33.666Z,17.48
2023-02-12T17:48:00.312Z,16.15
2023-02-12T17:50:27.020Z,17.25
2023-02-12T17:52:53.697Z,18.73
2023-02-12T17:55:20.409Z,19.52
2023-02-12T17:57:47.213Z,15.52
2023-02-12T18:00:14.428Z,19.05
2023-02-12T18:02:41.061Z,18.40
2023-02-12T18:05:08.594Z,18.77
2023-02-12T18:07:36.564Z,16.58
2023-02-12T18:10:05.179Z,19.45
2023-02-12T18:12:32.653Z,20.38
2023-02-12T18:15:00.135Z,19.88
2023-02-12T18:17:26.904Z,20.10
2023-02-12T18:19:53.878Z,18.48
2023-02-12T18:22:20.722Z,22.52
2023-02-12T18:24:47.396Z,22.58
2023-02-12T18:27:14.357Z,21.45
2023-02-12T18:29:41.356Z,21.17
2023-02-12T18:32:08.049Z,22.00
2023-02-12T18:34:34.941Z,20.50
2023-02-12T18:37:01.644Z,22.88
2023-02-12T18:39:29.074Z,30.20
2023-02-12T18:41:55.816Z,22.40
2023-02-12T18:44:22.769Z,21.15
2023-02-12T18:46:49.468Z,19.83
2023-02-12T18:49:16.606Z,20.67
2023-02-12T18:51:43.347Z,20.50
2023-02-12T18:54:12.176Z,21.15
2023-02-12T18:56:41.176Z,21.85
2023-02-12T18:59:08.361Z,21.77
2023-02-12T19:01:35.415Z,28.48
2023-02-12T19:04:03.362Z,23.52
2023-02-12T19:06:30.386Z,27.50
2023-02-12T19:08:57.809Z,24.25
2023-02-12T19:11:24.633Z,24.83
2023-02-12T19:13:51.519Z,21.98
2023-02-12T19:16:19.050Z,21.13
2023-02-12T19:18:48.656Z,20.70
2023-02-12T19:21:16.417Z,24.70
2023-02-12T19:23:43.414Z,21.40
2023-02-12T19:26:12.594Z,22.25
2023-02-12T19:28:39.298Z,22.17
2023-02-12T19:31:16.843Z,23.17
2023-02-12T19:33:43.854Z,21.73
2023-02-12T19:36:11.857Z,24.38
2023-02-12T19:38:38.643Z,23.00
2023-02-12T19:41:06.431Z,24.85
2023-02-12T19:43:33.106Z,24.08
2023-02-12T19:46:02.565Z,21.17
2023-02-12T19:48:29.719Z,24.45
2023-02-12T19:50:56.882Z,21.08
2023-02-12T19:53:23.778Z,21.30
2023-02-12T19:55:50.451Z,22.17
2023-02-12T19:58:17.039Z,19.15
2023-02-12T20:00:44.158Z,20.60
2023-02-12T20:03:10.774Z,20.48
2023-02-12T20:05:44.463Z,20.88
2023-02-12T20:08:11.052Z,22.73
2023-02-12T20:10:40.222Z,20.60
2023-02-12T20:13:06.976Z,21.80
2023-02-12T20:15:36.615Z,19.30
2023-02-12T20:18:04.822Z,20.42
2023-02-12T20:20:31.830Z,20.58
2023-02-12T20:22:58.509Z,22.27
2023-02-12T20:25:25.397Z,21.73
2023-02-12T20:27:52.373Z,21.80
2023-02-12T20:30:19.248Z,21.35
2023-02-12T20:32:46.172Z,20.08
2023-02-12T20:35:13.429Z,18.48
2023-02-12T20:37:40.197Z,22.52
2023-02-12T20:40:08.234Z,20.50
2023-02-12T20:42:34.842Z,19.98
2023-02-12T20:45:01.435Z,22.27
2023-02-12T20:47:29.119Z,21.40
2023-02-12T20:49:55.900Z,18.52
2023-02-12T20:52:23.289Z,17.63
2023-02-12T20:54:50.269Z,17.00
2023-02-12T20:57:17.356Z,15.75
2023-02-12T20:59:43.941Z,16.40
2023-02-12T21:02:11.370Z,16.17
2023-02-12T21:04:38.002Z,17.08
2023-02-12T21:07:04.634Z,15.20
2023-02-12T21:09:31.343Z,13.82
2023-02-12T21:11:59.056Z,15.65
2023-02-12T21:14:25.867Z,14.45
2023-02-12T21:16:53.897Z,14.95
2023-02-12T21:19:20.645Z,15.77
2023-02-12T21:21:47.739Z,15.40
2023-02-12T21:24:17.128Z,15.02
2023-02-12T21:26:43.810Z,15.27
2023-02-12T21:29:10.684Z,16.58
2023-02-12T21:31:39.014Z,17.70
2023-02-12T21:34:06.581Z,17.85
2023-02-12T21:36:35.711Z,15.10
2023-02-12T21:39:02.644Z,13.68
2023-02-12T21:41:30.727Z,14.82
2023-02-12T21:43:59.302Z,15.25
2023-02-12T21:46:26.163Z,14.65
2023-02-12T21:48:53.021Z,16.23
2023-02-12T21:51:22.808Z,16.80
2023-02-12T21:53:51.243Z,15.20
2023-02-12T21:56:18.026Z,13.02
2023-02-12T21:58:44.644Z,16.15
2023-02-12T22:01:13.269Z,14.10
2023-02-12T22:03:39.840Z,14.50
2023-02-12T22:06:07.434Z,14.18
2023-02-12T22:08:34.489Z,16.48
2023-02-12T22:11:03.680Z,14.90
2023-02-12T22:13:30.827Z,16.80
2023-02-12T22:15:58.094Z,15.77
2023-02-12T22:18:24.743Z,14.18
2023-02-12T22:20:53.083Z,15.10
2023-02-12T22:23:19.684Z,13.65
2023-02-12T22:25:46.427Z,17.50
2023-02-12T22:28:13.272Z,15.70
2023-02-12T22:30:39.896Z,15.50
2023-02-12T22:33:06.553Z,14.70
2023-02-12T22:35:33.424Z,14.35
2023-02-12T22:38:00.159Z,13.40
2023-02-12T22:40:26.746Z,14.10
2023-02-12T22:42:53.580Z,13.32
2023-02-12T22:45:20.217Z,14.32
2023-02-12T22:47:46.909Z,14.80
2023-02-12T22:50:13.526Z,15.00
2023-02-12T22:52:40.229Z,13.60
2023-02-12T22:55:06.838Z,13.00
2023-02-12T22:57:33.482Z,13.40
2023-02-12T23:00:00.190Z,13.30
2023-02-12T23:02:26.874Z,12.82
2023-02-12T23:04:53.477Z,11.43
2023-02-12T23:07:20.100Z,12.95
2023-02-12T23:09:46.765Z,14.45
2023-02-12T23:12:13.394Z,11.82
2023-02-12T23:14:40.118Z,12.45
2023-02-12T23:17:06.739Z,12.60
2023-02-12T23:19:33.364Z,10.85
2023-02-12T23:22:00.024Z,11.50
2023-02-12T23:24:26.670Z,12.25
2023-02-12T23:26:53.687Z,10.27
2023-02-12T23:29:20.449Z,11.18
2023-02-12T23:31:47.247Z,12.20
2023-02-12T23:34:14.092Z,11.73
2023-02-12T23:36:40.867Z,14.32
2023-02-12T23:39:09.422Z,18.90
2023-02-12T23:41:36.207Z,19.23
2023-02-12T23:44:03.029Z,16.90
2023-02-12T23:46:32.212Z,12.75
2023-02-12T23:48:59.183Z,11.55
2023-02-12T23:51:25.788Z,12.57
2023-02-12T23:53:52.475Z,11.90
2023-02-12T23:56:19.269Z,13.65
2023-02-12T23:58:45.909Z,12.43
